createdAt,value
2018-11-11T00:02:11.718Z,11.24
2018-11-11T00:04:23.962Z,11.22
2018-11-11T00:06:36.207Z,11.18
2018-11-11T00:08:48.416Z,11.18
2018-11-11T00:11:00.587Z,11.15
2018-11-11T00:13:12.914Z,11.16
2018-11-11T00:15:25.147Z,11.11
2018-11-11T00:17:37.330Z,11.07
2018-11-11T00:19:49.538Z,11.05
2018-11-11T00:22:01.733Z,11.03
2018-11-11T00:24:13.956Z,10.98
2018-11-11T00:26:26.233Z,10.96
2018-11-11T00:28:38.531Z,10.97
2018-11-11T00:30:50.640Z,11.02
2018-11-11T00:33:02.838Z,11.02
2018-11-11T00:35:15.132Z,11.01
2018-11-11T00:37:27.372Z,11.07
2018-11-11T00:39:39.678Z,11.03
2018-11-11T00:41:51.849Z,10.98
2018-11-11T00:44:04.135Z,10.96
2018-11-11T00:46:16.355Z,10.96
2018-11-11T00:48:28.510Z,10.97
2018-11-11T00:50:40.732Z,10.96
2018-11-11T00:52:52.974Z,10.97
2018-11-11T00:55:07.062Z,10.93
2018-11-11T00:57:19.313Z,10.91
2018-11-11T00:59:31.505Z,10.91
2018-11-11T01:01:43.705Z,10.89
2018-11-11T01:03:55.904Z,10.92
2018-11-11T01:06:08.096Z,10.90
2018-11-11T01:08:20.436Z,10.91
2018-11-11T01:10:32.632Z,10.98
2018-11-11T01:12:45.341Z,11.02
2018-11-11T01:14:57.613Z,11.09
2018-11-11T01:17:09.898Z,11.14
2018-11-11T01:19:22.131Z,11.19
2018-11-11T01:21:34.333Z,11.21
2018-11-11T01:23:46.571Z,11.23
2018-11-11T01:25:58.783Z,11.27
2018-11-11T01:28:11.094Z,11.28
2018-11-11T01:30:23.288Z,11.29
2018-11-11T01:32:35.662Z,11.24
2018-11-11T01:34:47.922Z,11.22
2018-11-11T01:37:00.130Z,11.25
2018-11-11T01:39:12.333Z,11.32
2018-11-11T01:41:24.540Z,11.35
2018-11-11T01:43:36.776Z,11.32
2018-11-11T01:45:48.968Z,11.33
2018-11-11T01:48:01.163Z,11.31
2018-11-11T01:50:13.583Z,11.31
2018-11-11T01:52:25.922Z,11.35
2018-11-11T01:54:38.182Z,11.35
2018-11-11T01:56:50.358Z,11.38
2018-11-11T01:59:02.591Z,11.40
2018-11-11T02:01:14.826Z,11.38
2018-11-11T02:03:27.058Z,11.39
2018-11-11T02:05:39.275Z,11.38
2018-11-11T02:07:51.462Z,11.37
2018-11-11T02:10:04.585Z,11.36
2018-11-11T02:12:16.730Z,11.38
2018-11-11T02:14:28.954Z,11.41
2018-11-11T02:16:41.151Z,11.42
2018-11-11T02:18:53.362Z,11.44
2018-11-11T02:21:05.577Z,11.42
2018-11-11T02:23:17.800Z,11.46
2018-11-11T02:25:30.053Z,11.50
2018-11-11T02:27:42.374Z,11.56
2018-11-11T02:29:54.564Z,11.59
2018-11-11T02:32:06.807Z,11.59
2018-11-11T02:34:19.032Z,11.62
2018-11-11T02:36:31.259Z,11.64
2018-11-11T02:38:43.500Z,11.67
2018-11-11T02:40:55.765Z,11.70
2018-11-11T02:43:08.012Z,11.72
2018-11-11T02:45:20.486Z,11.77
2018-11-11T02:47:32.679Z,11.80
2018-11-11T02:49:44.918Z,11.82
2018-11-11T02:51:57.367Z,11.88
2018-11-11T02:54:09.599Z,11.92
2018-11-11T02:56:21.795Z,11.95
2018-11-11T02:58:34.031Z,11.93
2018-11-11T03:00:46.235Z,11.96
2018-11-11T03:02:58.453Z,11.98
2018-11-11T03:05:12.026Z,11.97
2018-11-11T03:07:24.222Z,11.98
2018-11-11T03:09:36.431Z,11.98
2018-11-11T03:11:48.631Z,11.98
2018-11-11T03:14:00.823Z,12.02
2018-11-11T03:16:13.002Z,12.02
2018-11-11T03:18:25.211Z,12.04
2018-11-11T03:20:37.409Z,12.03
2018-11-11T03:22:49.614Z,12.06
2018-11-11T03:25:02.012Z,12.09
2018-11-11T03:27:14.193Z,12.08
2018-11-11T03:29:26.403Z,12.10
2018-11-11T03:31:38.595Z,12.10
2018-11-11T03:33:50.795Z,12.11
2018-11-11T03:36:02.976Z,12.11
2018-11-11T03:38:15.156Z,12.16
2018-11-11T03:40:27.463Z,12.16
2018-11-11T03:42:39.807Z,12.19
2018-11-11T03:44:52.075Z,12.19
2018-11-11T03:47:04.639Z,12.19
2018-11-11T03:49:16.871Z,12.16
2018-11-11T03:51:29.090Z,12.14
2018-11-11T03:53:41.291Z,12.14
2018-11-11T03:55:53.628Z,12.17
2018-11-11T03:58:05.883Z,12.18
2018-11-11T04:00:18.103Z,12.16
2018-11-11T04:02:30.394Z,12.14
2018-11-11T04:04:42.588Z,12.15
2018-11-11T04:06:54.770Z,12.16
2018-11-11T04:09:09.210Z,12.12
2018-11-11T04:11:21.417Z,12.09
2018-11-11T04:13:33.819Z,12.06
2018-11-11T04:15:46.018Z,12.04
2018-11-11T04:17:58.249Z,12.05
2018-11-11T04:20:12.548Z,12.04
2018-11-11T04:22:24.796Z,12.04
2018-11-11T04:24:36.990Z,12.03
2018-11-11T04:26:49.191Z,12.00
2018-11-11T04:29:01.384Z,12.02
2018-11-11T04:31:13.609Z,12.02
2018-11-11T04:33:25.775Z,12.00
2018-11-11T04:35:37.984Z,12.04
2018-11-11T04:37:50.170Z,12.04
2018-11-11T04:40:02.481Z,12.03
2018-11-11T04:42:14.715Z,12.00
2018-11-11T04:44:27.045Z,11.99
2018-11-11T04:46:39.316Z,11.95
2018-11-11T04:48:51.512Z,11.89
2018-11-11T04:51:03.870Z,11.83
2018-11-11T04:53:16.115Z,11.78
2018-11-11T04:55:28.300Z,11.71
2018-11-11T04:57:41.210Z,11.64
2018-11-11T04:59:53.406Z,11.66
2018-11-11T05:02:05.638Z,11.62
2018-11-11T05:04:17.834Z,11.54
2018-11-11T05:06:29.993Z,11.49
2018-11-11T05:08:42.243Z,11.39
2018-11-11T05:10:54.479Z,11.35
2018-11-11T05:13:06.735Z,11.32
2018-11-11T05:15:18.935Z,11.35
2018-11-11T05:17:31.144Z,11.31
2018-11-11T05:19:43.323Z,11.28
2018-11-11T05:21:55.547Z,11.26
2018-11-11T05:24:07.716Z,11.26
2018-11-11T05:26:19.883Z,11.22
2018-11-11T05:28:32.087Z,11.19
2018-11-11T05:30:44.280Z,11.20
2018-11-11T05:32:56.481Z,11.18
2018-11-11T05:35:09.586Z,11.18
2018-11-11T05:37:21.783Z,11.13
2018-11-11T05:39:34.028Z,11.14
2018-11-11T05:41:46.194Z,11.15
2018-11-11T05:43:58.414Z,11.15
2018-11-11T05:46:10.675Z,11.12
2018-11-11T05:48:22.842Z,11.11
2018-11-11T05:50:35.050Z,11.14
2018-11-11T05:52:47.239Z,11.20
2018-11-11T05:54:59.437Z,11.16
2018-11-11T05:57:11.618Z,11.19
2018-11-11T05:59:23.828Z,11.21
2018-11-11T06:01:36.171Z,11.31
2018-11-11T06:03:48.390Z,11.40
2018-11-11T06:06:00.603Z,11.58
2018-11-11T06:08:12.785Z,11.73
2018-11-11T06:10:25.032Z,11.84
2018-11-11T06:12:37.244Z,11.94
2018-11-11T06:14:49.418Z,11.96
2018-11-11T06:17:01.679Z,12.00
2018-11-11T06:19:13.885Z,12.04
2018-11-11T06:21:26.079Z,12.00
2018-11-11T06:23:38.286Z,11.93
2018-11-11T06:25:50.508Z,11.85
2018-11-11T06:28:02.708Z,11.79
2018-11-11T06:30:14.893Z,11.72
2018-11-11T06:32:27.132Z,11.69
2018-11-11T06:34:39.353Z,11.67
2018-11-11T06:36:51.532Z,11.63
2018-11-11T06:39:06.086Z,11.59
2018-11-11T06:41:18.298Z,11.58
2018-11-11T06:43:30.518Z,11.61
2018-11-11T06:45:42.707Z,11.61
2018-11-11T06:47:54.957Z,11.64
2018-11-11T06:50:08.457Z,11.67
2018-11-11T06:52:20.699Z,11.67
2018-11-11T06:54:32.882Z,11.70
2018-11-11T06:56:45.079Z,11.67
2018-11-11T06:58:57.311Z,11.68
2018-11-11T07:01:09.499Z,11.72
2018-11-11T07:03:33.054Z,11.71
2018-11-11T07:05:45.259Z,11.70
2018-11-11T07:07:57.458Z,11.68
2018-11-11T07:10:09.751Z,11.62
2018-11-11T07:12:22.054Z,11.62
2018-11-11T07:14:34.260Z,11.60
2018-11-11T07:16:46.462Z,11.58
2018-11-11T07:18:58.682Z,11.53
2018-11-11T07:21:10.909Z,11.53
2018-11-11T07:23:23.212Z,11.49
2018-11-11T07:25:35.354Z,11.46
2018-11-11T07:27:47.585Z,11.48
2018-11-11T07:29:59.794Z,11.48
2018-11-11T07:32:12.011Z,11.51
2018-11-11T07:34:24.247Z,11.49
2018-11-11T07:36:36.468Z,11.49
2018-11-11T07:38:48.779Z,11.53
2018-11-11T07:41:00.960Z,11.59
2018-11-11T07:43:13.150Z,11.58
2018-11-11T07:45:25.361Z,11.61
2018-11-11T07:47:37.581Z,11.63
2018-11-11T07:49:49.804Z,11.71
2018-11-11T07:52:02.064Z,11.77
2018-11-11T07:54:14.247Z,11.83
2018-11-11T07:56:26.583Z,11.90
2018-11-11T07:58:38.936Z,11.97
2018-11-11T08:00:51.134Z,12.03
2018-11-11T08:03:03.397Z,12.06
2018-11-11T08:05:15.697Z,12.10
2018-11-11T08:07:27.889Z,12.12
2018-11-11T08:09:40.102Z,12.15
2018-11-11T08:12:00.312Z,12.14
2018-11-11T08:14:12.511Z,12.11
2018-11-11T08:16:24.731Z,12.12
2018-11-11T08:18:36.943Z,12.14
2018-11-11T08:20:49.229Z,12.14
2018-11-11T08:23:01.438Z,12.14
2018-11-11T08:25:13.717Z,12.07
2018-11-11T08:27:25.870Z,12.01
2018-11-11T08:29:38.097Z,12.02
2018-11-11T08:31:50.335Z,12.04
2018-11-11T08:34:02.629Z,12.04
2018-11-11T08:36:14.891Z,12.04
2018-11-11T08:38:27.119Z,11.97
2018-11-11T08:40:39.525Z,11.96
2018-11-11T08:42:51.722Z,12.02
2018-11-11T08:45:04.925Z,12.06
2018-11-11T08:47:17.235Z,12.05
2018-11-11T08:49:29.469Z,12.07
2018-11-11T08:51:41.738Z,12.12
2018-11-11T08:53:54.020Z,12.16
2018-11-11T08:56:06.250Z,12.19
2018-11-11T08:58:18.455Z,12.19
2018-11-11T09:00:30.658Z,12.21
2018-11-11T09:02:42.918Z,12.29
2018-11-11T09:04:55.309Z,12.66
2018-11-11T09:07:07.550Z,13.14
2018-11-11T09:09:19.783Z,13.61
2018-11-11T09:11:32.106Z,14.04
2018-11-11T09:13:44.304Z,14.46
2018-11-11T09:15:56.540Z,14.74
2018-11-11T09:18:08.796Z,14.93
2018-11-11T09:20:20.994Z,14.79
2018-11-11T09:22:33.281Z,14.61
2018-11-11T09:24:45.626Z,14.50
2018-11-11T09:26:57.856Z,14.41
2018-11-11T09:29:10.145Z,14.32
2018-11-11T09:31:22.408Z,14.31
2018-11-11T09:33:34.695Z,14.26
2018-11-11T09:35:46.923Z,14.29
2018-11-11T09:37:59.159Z,14.30
2018-11-11T09:40:12.570Z,14.28
2018-11-11T09:42:25.389Z,14.24
2018-11-11T09:44:37.626Z,14.24
2018-11-11T09:46:49.923Z,14.27
2018-11-11T09:49:02.194Z,14.24
2018-11-11T09:51:14.432Z,14.21
2018-11-11T09:53:26.669Z,14.21
2018-11-11T09:55:38.946Z,14.18
2018-11-11T09:57:51.224Z,14.22
2018-11-11T10:00:04.218Z,14.27
2018-11-11T10:02:16.879Z,14.31
2018-11-11T10:04:37.717Z,14.34
2018-11-11T10:07:20.742Z,14.33
2018-11-11T10:09:38.612Z,14.34
2018-11-11T10:11:56.423Z,14.35
2018-11-11T10:14:14.258Z,14.35
2018-11-11T10:16:38.956Z,14.35
2018-11-11T10:19:01.983Z,14.40
2018-11-11T10:21:19.602Z,14.45
2018-11-11T10:23:38.401Z,14.50
2018-11-11T10:26:04.694Z,14.47
2018-11-11T10:30:29.884Z,14.47
2018-11-11T10:33:17.962Z,14.51
2018-11-11T10:35:35.783Z,14.53
2018-11-11T10:37:52.434Z,14.57
2018-11-11T10:40:13.150Z,14.60
2018-11-11T10:43:04.697Z,14.66
2018-11-11T10:45:23.473Z,14.71
2018-11-11T10:47:39.429Z,14.78
2018-11-11T10:49:53.731Z,14.85
2018-11-11T10:52:06.160Z,14.92
2018-11-11T10:54:18.476Z,14.97
2018-11-11T10:56:30.715Z,15.06
2018-11-11T10:58:43.004Z,15.04
2018-11-11T11:01:00.906Z,15.07
2018-11-11T11:03:18.812Z,15.12
2018-11-11T11:05:31.083Z,15.14
2018-11-11T11:07:43.363Z,15.14
2018-11-11T11:09:55.700Z,15.19
2018-11-11T11:12:08.036Z,15.21
2018-11-11T11:14:20.287Z,15.24
2018-11-11T11:16:32.479Z,15.29
2018-11-11T11:18:44.730Z,15.41
2018-11-11T11:20:57.013Z,15.48
2018-11-11T11:23:09.458Z,15.52
2018-11-11T11:25:21.595Z,15.58
2018-11-11T11:27:33.883Z,15.75
2018-11-11T11:29:46.262Z,15.90
2018-11-11T11:31:58.527Z,15.96
2018-11-11T11:34:10.755Z,15.98
2018-11-11T11:36:23.063Z,16.08
2018-11-11T11:38:35.378Z,16.21
2018-11-11T11:40:47.769Z,16.35
2018-11-11T11:43:00.019Z,16.35
2018-11-11T11:45:12.371Z,16.37
2018-11-11T11:47:24.613Z,16.48
2018-11-11T11:49:36.859Z,16.58
2018-11-11T11:51:49.123Z,16.72
2018-11-11T11:54:01.407Z,16.79
2018-11-11T11:56:13.659Z,16.70
2018-11-11T11:58:27.259Z,16.59
2018-11-11T12:00:39.597Z,16.51
2018-11-11T12:02:51.890Z,16.57
2018-11-11T12:05:05.208Z,16.61
2018-11-11T12:07:17.471Z,16.74
2018-11-11T12:09:29.766Z,16.85
2018-11-11T12:11:42.015Z,16.91
2018-11-11T12:13:54.246Z,16.91
2018-11-11T12:16:06.453Z,16.84
2018-11-11T12:18:18.746Z,16.78
2018-11-11T12:20:30.977Z,16.73
2018-11-11T12:22:43.299Z,16.72
2018-11-11T12:24:55.565Z,16.66
2018-11-11T12:27:07.927Z,16.67
2018-11-11T12:29:20.166Z,16.68
2018-11-11T12:31:32.424Z,16.68
2018-11-11T12:33:44.722Z,16.70
2018-11-11T12:35:57.075Z,16.68
2018-11-11T12:38:09.306Z,16.67
2018-11-11T12:40:21.649Z,16.64
2018-11-11T12:42:33.881Z,16.67
2018-11-11T12:44:46.135Z,16.70
2018-11-11T12:46:58.453Z,16.71
2018-11-11T12:49:10.698Z,16.68
2018-11-11T12:51:22.934Z,16.70
2018-11-11T12:53:35.226Z,16.67
2018-11-11T12:55:47.463Z,16.62
2018-11-11T12:57:59.714Z,16.55
2018-11-11T13:00:13.419Z,16.59
2018-11-11T13:02:25.679Z,16.58
2018-11-11T13:04:38.032Z,16.56
2018-11-11T13:06:50.240Z,16.55
2018-11-11T13:09:03.840Z,16.56
2018-11-11T13:11:16.184Z,16.57
2018-11-11T13:13:28.470Z,16.53
2018-11-11T13:15:40.738Z,16.49
2018-11-11T13:17:53.011Z,16.49
2018-11-11T13:20:07.590Z,16.48
2018-11-11T13:22:19.902Z,16.41
2018-11-11T13:24:32.047Z,16.37
2018-11-11T13:26:44.301Z,16.38
2018-11-11T13:28:56.513Z,16.33
2018-11-11T13:31:08.757Z,16.30
2018-11-11T13:33:21.011Z,16.26
2018-11-11T13:35:33.205Z,16.27
2018-11-11T13:37:45.528Z,16.26
2018-11-11T13:39:59.498Z,16.26
2018-11-11T13:42:11.732Z,16.28
2018-11-11T13:44:23.984Z,16.23
2018-11-11T13:46:36.704Z,16.21
2018-11-11T13:48:48.847Z,16.18
2018-11-11T13:51:01.094Z,16.16
2018-11-11T13:53:13.452Z,16.17
2018-11-11T13:55:25.797Z,16.12
2018-11-11T13:57:38.106Z,16.11
2018-11-11T13:59:50.383Z,16.12
2018-11-11T14:02:02.691Z,16.12
2018-11-11T14:04:15.016Z,16.09
2018-11-11T14:06:27.325Z,16.08
2018-11-11T14:08:39.568Z,16.04
2018-11-11T14:10:51.930Z,16.04
2018-11-11T14:13:04.483Z,16.02
2018-11-11T14:15:18.565Z,16.00
2018-11-11T14:17:30.880Z,16.01
2018-11-11T14:19:43.209Z,16.00
2018-11-11T14:21:55.407Z,15.97
2018-11-11T14:24:07.749Z,15.93
2018-11-11T14:26:20.112Z,15.91
2018-11-11T14:28:32.357Z,15.88
2018-11-11T14:30:44.610Z,15.86
2018-11-11T14:32:57.942Z,15.85
2018-11-11T14:35:11.015Z,15.82
2018-11-11T14:37:23.250Z,15.80
2018-11-11T14:39:35.549Z,15.81
2018-11-11T14:41:47.831Z,15.79
2018-11-11T14:44:00.105Z,15.78
2018-11-11T14:46:12.496Z,15.74
2018-11-11T14:48:24.761Z,15.72
2018-11-11T14:50:37.107Z,15.71
2018-11-11T14:52:49.495Z,15.74
2018-11-11T14:55:02.009Z,15.79
2018-11-11T14:57:14.309Z,15.82
2018-11-11T14:59:26.636Z,15.85
2018-11-11T15:01:38.910Z,15.88
2018-11-11T15:03:51.178Z,15.87
2018-11-11T15:06:03.553Z,15.87
2018-11-11T15:08:15.874Z,15.85
2018-11-11T15:10:28.164Z,15.82
2018-11-11T15:12:40.610Z,15.72
2018-11-11T15:14:52.931Z,15.66
2018-11-11T15:17:05.245Z,15.62
2018-11-11T15:19:17.597Z,15.53
2018-11-11T15:21:29.832Z,15.50
2018-11-11T15:23:42.090Z,15.46
2018-11-11T15:25:55.239Z,15.41
2018-11-11T15:28:07.702Z,15.30
2018-11-11T15:30:22.015Z,15.25
2018-11-11T15:32:34.250Z,15.18
2018-11-11T15:34:46.545Z,15.11
2018-11-11T15:36:58.870Z,15.04
2018-11-11T15:39:11.430Z,15.04
2018-11-11T15:41:23.738Z,15.03
2018-11-11T15:43:35.979Z,15.00
2018-11-11T15:45:48.252Z,14.93
2018-11-11T15:48:02.767Z,14.90
2018-11-11T15:50:16.893Z,14.79
2018-11-11T15:52:29.233Z,14.77
2018-11-11T15:54:41.515Z,14.72
2018-11-11T15:56:53.836Z,14.65
2018-11-11T15:59:06.204Z,14.58
2018-11-11T16:01:18.512Z,14.55
2018-11-11T16:03:30.738Z,14.52
2018-11-11T16:05:43.011Z,14.51
2018-11-11T16:07:56.181Z,14.45
2018-11-11T16:10:10.370Z,14.36
2018-11-11T16:12:22.654Z,14.27
2018-11-11T16:14:35.011Z,14.15
2018-11-11T16:16:47.303Z,14.06
2018-11-11T16:18:59.588Z,14.00
2018-11-11T16:21:11.887Z,13.93
2018-11-11T16:23:24.217Z,13.90
2018-11-11T16:25:36.593Z,13.85
2018-11-11T16:27:49.185Z,13.80
2018-11-11T16:30:01.466Z,13.74
2018-11-11T16:32:13.782Z,13.74
2018-11-11T16:34:26.054Z,13.72
2018-11-11T16:36:38.443Z,13.68
2018-11-11T16:38:50.664Z,13.65
2018-11-11T16:41:03.713Z,13.62
2018-11-11T16:43:15.847Z,13.69
2018-11-11T16:45:29.964Z,13.70
2018-11-11T16:47:42.390Z,13.71
2018-11-11T16:50:00.583Z,13.70
2018-11-11T16:52:12.871Z,13.71
2018-11-11T16:54:25.131Z,13.70
2018-11-11T16:56:37.440Z,13.67
2018-11-11T16:58:49.723Z,13.61
2018-11-11T17:01:02.045Z,13.59
2018-11-11T17:03:14.371Z,13.53
2018-11-11T17:05:28.167Z,13.49
2018-11-11T17:07:40.448Z,13.40
2018-11-11T17:09:52.739Z,13.39
2018-11-11T17:12:05.700Z,13.34
2018-11-11T17:14:18.021Z,13.30
2018-11-11T17:16:30.271Z,13.26
2018-11-11T17:18:42.569Z,13.25
2018-11-11T17:20:54.916Z,13.20
2018-11-11T17:23:07.777Z,13.27
2018-11-11T17:25:21.260Z,13.46
2018-11-11T17:27:33.517Z,13.41
2018-11-11T17:29:45.934Z,13.32
2018-11-11T17:31:58.174Z,13.26
2018-11-11T17:34:10.426Z,13.16
2018-11-11T17:36:22.743Z,13.17
2018-11-11T17:38:35.056Z,13.14
2018-11-11T17:40:47.351Z,13.13
2018-11-11T17:43:00.455Z,13.11
2018-11-11T17:45:13.244Z,13.08
2018-11-11T17:47:25.564Z,13.06
2018-11-11T17:49:37.948Z,13.05
2018-11-11T17:51:50.302Z,13.04
2018-11-11T17:54:02.614Z,13.04
2018-11-11T17:56:14.835Z,13.04
2018-11-11T17:58:27.122Z,13.05
2018-11-11T18:00:39.455Z,13.01
2018-11-11T18:02:52.223Z,13.02
2018-11-11T18:05:05.425Z,13.09
2018-11-11T18:07:17.697Z,13.11
2018-11-11T18:09:29.909Z,13.15
2018-11-11T18:11:42.258Z,13.22
2018-11-11T18:13:55.446Z,13.25
2018-11-11T18:16:07.637Z,13.31
2018-11-11T18:18:19.987Z,13.37
2018-11-11T18:20:32.836Z,13.45
2018-11-11T18:22:45.507Z,13.54
2018-11-11T18:24:57.875Z,13.62
2018-11-11T18:27:10.193Z,13.71
2018-11-11T18:29:22.600Z,13.77
2018-11-11T18:31:34.878Z,13.84
2018-11-11T18:33:47.118Z,13.87
2018-11-11T18:35:59.436Z,13.93
2018-11-11T18:38:11.674Z,13.95
2018-11-11T18:40:25.260Z,13.96
2018-11-11T18:42:37.569Z,14.02
2018-11-11T18:44:49.877Z,14.03
2018-11-11T18:47:02.107Z,14.03
2018-11-11T18:49:14.400Z,14.02
2018-11-11T18:51:26.747Z,14.02
2018-11-11T18:53:39.067Z,14.04
2018-11-11T18:55:51.374Z,14.06
2018-11-11T18:58:03.750Z,14.07
2018-11-11T19:00:18.671Z,14.09
2018-11-11T19:02:30.993Z,14.10
2018-11-11T19:04:43.254Z,14.12
2018-11-11T19:06:55.594Z,14.12
2018-11-11T19:09:09.786Z,14.12
2018-11-11T19:11:22.101Z,14.05
2018-11-11T19:13:34.451Z,14.07
2018-11-11T19:15:46.694Z,14.12
2018-11-11T19:17:58.993Z,14.18
2018-11-11T19:20:13.359Z,14.15
2018-11-11T19:22:25.827Z,14.14
2018-11-11T19:24:38.213Z,14.12
2018-11-11T19:26:50.379Z,14.13
2018-11-11T19:29:02.702Z,14.08
2018-11-11T19:31:15.119Z,14.08
2018-11-11T19:33:27.486Z,14.11
2018-11-11T19:35:39.823Z,14.04
2018-11-11T19:37:53.224Z,14.04
2018-11-11T19:40:10.580Z,14.06
2018-11-11T19:42:22.955Z,14.06
2018-11-11T19:44:35.236Z,14.07
2018-11-11T19:46:47.571Z,14.05
2018-11-11T19:48:59.952Z,14.00
2018-11-11T19:51:12.292Z,13.95
2018-11-11T19:53:24.757Z,13.89
2018-11-11T19:55:37.132Z,13.84
2018-11-11T19:57:49.599Z,13.85
2018-11-11T20:00:01.976Z,13.86
2018-11-11T20:02:14.438Z,13.83
2018-11-11T20:04:26.876Z,13.80
2018-11-11T20:06:39.322Z,13.84
2018-11-11T20:08:51.645Z,13.87
2018-11-11T20:11:04.505Z,13.92
2018-11-11T20:13:17.056Z,13.96
2018-11-11T20:15:30.748Z,14.01
2018-11-11T20:17:43.753Z,14.03
2018-11-11T20:19:56.241Z,14.06
2018-11-11T20:22:08.536Z,14.11
2018-11-11T20:24:20.966Z,14.18
2018-11-11T20:26:33.201Z,14.23
2018-11-11T20:28:45.534Z,14.26
2018-11-11T20:30:57.876Z,14.28
2018-11-11T20:33:10.237Z,14.29
2018-11-11T20:35:24.064Z,14.32
2018-11-11T20:37:36.655Z,14.31
2018-11-11T20:39:48.939Z,14.34
2018-11-11T20:42:01.183Z,14.35
2018-11-11T20:44:13.503Z,14.35
2018-11-11T20:46:25.732Z,14.33
2018-11-11T20:48:38.362Z,14.34
2018-11-11T20:50:50.672Z,14.38
2018-11-11T20:53:04.236Z,14.40
2018-11-11T20:55:17.292Z,14.44
2018-11-11T20:57:29.607Z,14.47
2018-11-11T20:59:41.985Z,14.47
2018-11-11T21:01:54.335Z,14.47
2018-11-11T21:04:06.620Z,14.49
2018-11-11T21:06:18.955Z,14.50
2018-11-11T21:08:31.265Z,14.53
2018-11-11T21:10:43.641Z,14.51
2018-11-11T21:12:56.160Z,14.49
2018-11-11T21:15:10.682Z,14.48
2018-11-11T21:17:23.030Z,14.48
2018-11-11T21:19:35.264Z,14.52
2018-11-11T21:21:47.541Z,14.50
2018-11-11T21:23:59.765Z,14.48
2018-11-11T21:26:12.033Z,14.49
2018-11-11T21:28:24.325Z,14.49
2018-11-11T21:30:36.623Z,14.45
2018-11-11T21:32:49.078Z,14.42
2018-11-11T21:35:01.308Z,14.43
2018-11-11T21:37:13.604Z,14.44
2018-11-11T21:39:25.826Z,14.43
2018-11-11T21:41:38.138Z,14.37
2018-11-11T21:43:50.449Z,14.33
2018-11-11T21:46:02.678Z,14.31
2018-11-11T21:48:14.957Z,14.29
2018-11-11T21:50:27.818Z,14.25
2018-11-11T21:52:40.802Z,14.24
2018-11-11T21:54:53.095Z,14.22
2018-11-11T21:57:05.475Z,14.19
2018-11-11T21:59:17.795Z,14.20
2018-11-11T22:01:30.066Z,14.20
2018-11-11T22:03:42.362Z,14.19
2018-11-11T22:05:54.854Z,14.19
2018-11-11T22:08:07.203Z,14.25
2018-11-11T22:10:19.552Z,14.21
2018-11-11T22:12:31.778Z,14.19
2018-11-11T22:14:44.028Z,14.18
2018-11-11T22:16:56.325Z,14.18
2018-11-11T22:19:08.539Z,14.18
2018-11-11T22:21:20.734Z,14.14
2018-11-11T22:23:32.942Z,14.18
2018-11-11T22:25:45.181Z,14.18
2018-11-11T22:27:57.472Z,14.19
2018-11-11T22:30:11.027Z,14.20
2018-11-11T22:32:23.274Z,14.18
2018-11-11T22:34:35.541Z,14.19
2018-11-11T22:36:47.821Z,14.13
2018-11-11T22:38:59.975Z,14.13
2018-11-11T22:41:12.299Z,14.13
2018-11-11T22:43:24.563Z,14.04
2018-11-11T22:45:36.823Z,13.98
2018-11-11T22:47:49.087Z,13.95
2018-11-11T22:50:01.294Z,13.90
2018-11-11T22:52:13.531Z,13.85
2018-11-11T22:54:25.819Z,13.85
2018-11-11T22:56:38.044Z,13.87
2018-11-11T22:58:50.261Z,13.90
2018-11-11T23:01:08.315Z,13.87
2018-11-11T23:03:20.542Z,13.86
2018-11-11T23:05:32.832Z,13.86
2018-11-11T23:07:45.195Z,13.84
2018-11-11T23:09:57.431Z,13.88
2018-11-11T23:12:09.621Z,13.90
2018-11-11T23:14:21.817Z,13.92
2018-11-11T23:16:34.052Z,13.98
2018-11-11T23:18:46.318Z,13.95
2018-11-11T23:20:58.568Z,13.96
2018-11-11T23:23:10.775Z,14.00
2018-11-11T23:25:23.015Z,14.01
2018-11-11T23:27:35.375Z,13.94
2018-11-11T23:29:47.605Z,13.93
2018-11-11T23:31:59.871Z,13.92
2018-11-11T23:34:12.219Z,13.85
2018-11-11T23:36:24.439Z,13.82
2018-11-11T23:38:36.741Z,13.74
2018-11-11T23:40:48.993Z,13.70
2018-11-11T23:43:01.199Z,13.68
2018-11-11T23:45:13.531Z,13.56
2018-11-11T23:47:25.730Z,13.50
2018-11-11T23:49:37.943Z,13.41
2018-11-11T23:51:50.205Z,13.39
2018-11-11T23:54:02.443Z,13.35
2018-11-11T23:56:14.631Z,13.31
2018-11-11T23:58:26.902Z,13.27
